createdAt,value
2022-08-09T00:00:20.941Z,1.90
2022-08-09T00:02:49.294Z,2.30
2022-08-09T00:06:15.638Z,1.90
2022-08-09T00:08:11.367Z,2.40
2022-08-09T00:10:41.343Z,1.98
2022-08-09T00:13:16.813Z,2.38
2022-08-09T00:15:59.287Z,2.40
2022-08-09T00:18:31.460Z,2.10
2022-08-09T00:21:04.505Z,2.20
2022-08-09T00:23:55.161Z,2.10
2022-08-09T00:26:19.022Z,2.45
2022-08-09T00:28:56.826Z,1.85
2022-08-09T00:31:57.150Z,1.90
2022-08-09T00:34:12.435Z,1.98
2022-08-09T00:36:39.963Z,2.08
2022-08-09T00:39:17.064Z,2.10
2022-08-09T00:44:10.586Z,2.50
2022-08-09T00:44:47.088Z,2.03
2022-08-09T00:47:15.644Z,2.35
2022-08-09T00:49:52.568Z,2.22
2022-08-09T00:52:30.523Z,2.08
2022-08-09T00:55:00.244Z,2.30
2022-08-09T00:57:34.255Z,1.90
2022-08-09T01:00:21.093Z,2.40
2022-08-09T01:03:28.436Z,2.05
2022-08-09T01:06:17.435Z,2.28
2022-08-09T01:08:58.381Z,1.98
2022-08-09T01:11:53.450Z,1.90
2022-08-09T01:14:25.976Z,1.98
2022-08-09T01:17:01.256Z,2.00
2022-08-09T01:20:01.810Z,1.60
2022-08-09T01:22:35.827Z,1.85
2022-08-09T01:25:41.885Z,1.77
2022-08-09T01:28:11.389Z,1.70
2022-08-09T01:30:51.809Z,1.80
2022-08-09T01:33:25.531Z,1.38
2022-08-09T01:41:30.348Z,1.48
2022-08-09T01:44:01.177Z,1.50
2022-08-09T01:46:32.588Z,1.58
2022-08-09T01:49:14.722Z,1.73
2022-08-09T01:51:53.623Z,1.70
2022-08-09T01:54:25.727Z,1.30
2022-08-09T01:56:55.061Z,1.45
2022-08-09T01:59:24.401Z,1.65
2022-08-09T02:02:01.142Z,1.60
2022-08-09T02:04:31.870Z,1.55
2022-08-09T02:07:18.488Z,1.80
2022-08-09T02:10:12.236Z,1.80
2022-08-09T02:12:40.386Z,1.67
2022-08-09T02:15:11.794Z,1.90
2022-08-09T02:18:01.383Z,1.83
2022-08-09T02:20:36.129Z,1.50
2022-08-09T02:23:11.046Z,1.50
2022-08-09T02:25:42.278Z,1.95
2022-08-09T02:28:20.743Z,1.52
2022-08-09T02:31:06.907Z,1.40
2022-08-09T02:34:07.447Z,1.70
2022-08-09T02:36:35.506Z,1.67
2022-08-09T02:39:14.486Z,1.58
2022-08-09T02:41:55.436Z,2.63
2022-08-09T02:44:31.297Z,2.13
2022-08-09T02:47:04.245Z,1.98
2022-08-09T02:49:41.344Z,2.30
2022-08-09T02:52:13.697Z,2.00
2022-08-09T02:54:54.071Z,2.17
2022-08-09T02:57:25.035Z,1.90
2022-08-09T03:00:21.195Z,2.00
2022-08-09T03:02:58.546Z,2.10
2022-08-09T03:05:28.839Z,2.13
2022-08-09T03:07:57.707Z,2.05
2022-08-09T03:10:26.374Z,1.92
2022-08-09T03:12:54.892Z,2.35
2022-08-09T03:15:23.474Z,2.25
2022-08-09T03:17:57.901Z,2.25
2022-08-09T03:20:29.490Z,2.20
2022-08-09T03:23:14.576Z,2.30
2022-08-09T03:25:58.240Z,2.40
2022-08-09T03:28:27.724Z,2.25
2022-08-09T03:30:55.698Z,3.10
2022-08-09T03:33:24.669Z,3.15
2022-08-09T03:36:13.571Z,3.50
2022-08-09T03:38:43.592Z,3.20
2022-08-09T03:41:15.698Z,2.97
2022-08-09T03:44:03.675Z,3.33
2022-08-09T03:46:31.700Z,3.03
2022-08-09T03:49:04.060Z,2.80
2022-08-09T03:51:54.234Z,2.80
2022-08-09T03:54:29.732Z,2.40
2022-08-09T03:57:00.902Z,2.40
2022-08-09T03:59:53.061Z,2.22
2022-08-09T04:02:26.281Z,2.40
2022-08-09T04:04:59.325Z,2.53
2022-08-09T04:07:47.593Z,2.00
2022-08-09T04:10:18.415Z,2.28
2022-08-09T04:12:51.351Z,2.20
2022-08-09T04:15:42.621Z,1.88
2022-08-09T04:18:07.957Z,2.10
2022-08-09T04:20:35.560Z,2.03
2022-08-09T04:23:03.557Z,2.00
2022-08-09T04:25:37.176Z,2.15
2022-08-09T04:28:04.353Z,2.20
2022-08-09T04:30:32.601Z,2.22
2022-08-09T04:33:01.183Z,2.38
2022-08-09T04:35:29.261Z,2.33
2022-08-09T04:37:59.618Z,2.00
2022-08-09T04:40:48.342Z,2.30
2022-08-09T04:43:23.267Z,2.10
2022-08-09T04:45:53.593Z,2.42
2022-08-09T04:48:23.836Z,2.40
2022-08-09T04:51:00.643Z,2.30
2022-08-09T04:53:28.611Z,2.20
2022-08-09T04:55:59.621Z,2.20
2022-08-09T04:58:31.887Z,1.92
2022-08-09T05:01:01.472Z,2.83
2022-08-09T05:03:41.131Z,2.33
2022-08-09T05:06:26.725Z,2.33
2022-08-09T05:09:00.291Z,2.65
2022-08-09T05:11:32.421Z,2.60
2022-08-09T05:14:05.801Z,2.10
2022-08-09T05:16:58.225Z,2.35
2022-08-09T05:19:25.989Z,2.70
2022-08-09T05:21:59.163Z,2.60
2022-08-09T05:24:27.268Z,2.40
2022-08-09T05:26:54.546Z,2.38
2022-08-09T05:29:24.061Z,2.70
2022-08-09T05:31:57.737Z,2.63
2022-08-09T05:34:32.506Z,2.38
2022-08-09T05:37:11.241Z,2.35
2022-08-09T05:39:43.716Z,2.65
2022-08-09T05:42:17.361Z,2.58
2022-08-09T05:44:52.624Z,2.42
2022-08-09T05:47:21.647Z,5.25
2022-08-09T05:50:25.630Z,2.80
2022-08-09T05:52:38.927Z,4.28
2022-08-09T05:55:08.797Z,2.70
2022-08-09T05:57:51.241Z,2.47
2022-08-09T06:00:25.682Z,2.33
2022-08-09T06:02:54.635Z,2.47
2022-08-09T06:05:30.839Z,4.22
2022-08-09T06:08:19.704Z,2.70
2022-08-09T06:10:52.268Z,3.58
2022-08-09T06:13:20.863Z,2.53
2022-08-09T06:15:51.348Z,2.70
2022-08-09T06:18:24.985Z,4.25
2022-08-09T06:20:57.827Z,4.80
2022-08-09T06:23:55.671Z,5.20
2022-08-09T06:26:20.930Z,3.75
2022-08-09T06:29:00.691Z,5.95
2022-08-09T06:31:40.285Z,2.97
2022-08-09T06:34:22.861Z,3.10
2022-08-09T06:36:59.085Z,2.72
2022-08-09T06:39:48.374Z,3.80
2022-08-09T06:42:15.781Z,3.17
2022-08-09T06:44:42.765Z,3.03
2022-08-09T06:47:10.717Z,3.00
2022-08-09T06:50:11.556Z,5.60
2022-08-09T06:52:26.658Z,3.72
2022-08-09T06:54:54.223Z,2.50
2022-08-09T06:57:42.758Z,2.80
2022-08-09T07:00:50.509Z,3.42
2022-08-09T07:02:57.787Z,3.03
2022-08-09T07:05:24.947Z,3.47
2022-08-09T07:08:12.051Z,2.85
2022-08-09T07:10:39.506Z,2.15
2022-08-09T07:13:27.617Z,2.33
2022-08-09T07:16:42.129Z,2.60
2022-08-09T07:18:40.970Z,2.30
2022-08-09T07:21:08.279Z,2.50
2022-08-09T07:23:36.398Z,2.13
2022-08-09T07:26:13.839Z,2.30
2022-08-09T07:29:07.857Z,2.60
2022-08-09T07:31:27.796Z,2.72
2022-08-09T07:33:56.460Z,2.58
2022-08-09T07:36:27.105Z,2.22
2022-08-09T07:39:00.441Z,2.17
2022-08-09T07:41:27.872Z,2.10
2022-08-09T07:46:27.801Z,1.67
2022-08-09T07:48:59.615Z,2.63
2022-08-09T07:52:04.744Z,2.30
2022-08-09T07:54:15.521Z,1.95
2022-08-09T07:56:49.163Z,2.20
2022-08-09T07:59:25.154Z,2.10
2022-08-09T08:02:00.527Z,2.33
2022-08-09T08:04:32.375Z,1.85
2022-08-09T08:09:53.382Z,2.30
2022-08-09T08:12:27.646Z,2.00
2022-08-09T08:14:57.000Z,2.50
2022-08-09T08:17:35.556Z,1.98
2022-08-09T08:20:12.543Z,2.40
2022-08-09T08:22:40.954Z,2.53
2022-08-09T08:25:13.480Z,2.47
2022-08-09T08:27:43.159Z,1.90
2022-08-09T08:30:12.239Z,2.00
2022-08-09T08:32:41.711Z,1.95
2022-08-09T08:35:22.507Z,2.22
2022-08-09T08:37:59.579Z,1.90
2022-08-09T08:40:35.477Z,2.20
2022-08-09T08:45:53.579Z,2.72
2022-08-09T08:48:32.325Z,2.22
2022-08-09T08:51:00.319Z,2.28
2022-08-09T08:53:32.126Z,2.03
2022-08-09T08:56:04.891Z,2.75
2022-08-09T08:58:35.978Z,2.60
2022-08-09T09:01:09.006Z,3.38
2022-08-09T09:03:50.620Z,2.63
2022-08-09T09:06:19.636Z,2.50
2022-08-09T09:08:52.535Z,2.47
2022-08-09T09:11:28.291Z,3.00
2022-08-09T09:13:58.697Z,3.25
2022-08-09T09:16:30.591Z,2.85
2022-08-09T09:22:04.026Z,2.50
2022-08-09T09:24:38.864Z,2.47
2022-08-09T09:27:08.908Z,2.78
2022-08-09T09:30:12.088Z,2.25
2022-08-09T09:32:34.876Z,2.10
2022-08-09T09:35:09.952Z,3.25
2022-08-09T09:37:40.334Z,3.03
2022-08-09T09:40:09.313Z,6.47
2022-08-09T09:42:36.391Z,2.88
2022-08-09T09:45:08.363Z,2.70
2022-08-09T09:47:47.595Z,2.80
2022-08-09T09:50:23.119Z,3.35
2022-08-09T09:52:53.422Z,2.47
2022-08-09T09:55:28.442Z,3.03
2022-08-09T09:58:16.138Z,2.72
2022-08-09T10:00:55.066Z,2.80
2022-08-09T10:03:38.365Z,2.33
2022-08-09T10:06:07.246Z,2.97
2022-08-09T10:08:54.344Z,3.00
2022-08-09T10:11:59.979Z,3.42
2022-08-09T10:14:30.655Z,2.80
2022-08-09T10:17:39.701Z,3.05
2022-08-09T10:19:57.228Z,3.45
2022-08-09T10:22:34.097Z,2.60
2022-08-09T10:25:10.909Z,3.53
2022-08-09T10:27:54.531Z,2.88
2022-08-09T10:33:29.569Z,2.03
2022-08-09T10:36:05.348Z,2.78
2022-08-09T10:38:56.252Z,2.20
2022-08-09T10:41:25.304Z,2.70
2022-08-09T10:43:59.427Z,2.53
2022-08-09T10:46:55.095Z,2.60
2022-08-09T10:49:49.926Z,5.22
2022-08-09T10:52:48.698Z,4.25
2022-08-09T10:55:35.537Z,4.68
2022-08-09T10:58:34.830Z,5.10
2022-08-09T11:03:11.776Z,4.40
2022-08-09T11:04:19.814Z,8.30
2022-08-09T11:07:20.033Z,4.03
2022-08-09T11:09:51.251Z,2.97
2022-08-09T11:12:29.869Z,3.85
2022-08-09T11:14:59.088Z,4.43
2022-08-09T11:17:26.371Z,4.85
2022-08-09T11:20:22.368Z,4.85
2022-08-09T11:22:56.643Z,4.10
2022-08-09T11:25:36.001Z,4.38
2022-08-09T11:28:54.045Z,4.28
2022-08-09T11:31:49.933Z,8.32
2022-08-09T11:34:44.065Z,5.35
2022-08-09T11:37:24.395Z,4.32
2022-08-09T11:40:08.159Z,4.13
2022-08-09T11:42:41.031Z,5.53
2022-08-09T11:45:22.930Z,4.63
2022-08-09T11:48:02.755Z,5.53
2022-08-09T11:52:56.337Z,5.60
2022-08-09T11:54:14.744Z,5.13
2022-08-09T11:57:59.724Z,5.40
2022-08-09T12:00:27.650Z,4.70
2022-08-09T12:02:56.666Z,5.50
2022-08-09T12:05:42.157Z,4.15
2022-08-09T12:08:21.698Z,4.63
2022-08-09T12:10:54.857Z,3.85
2022-08-09T12:14:09.977Z,4.55
2022-08-09T12:16:38.544Z,5.43
2022-08-09T12:19:09.528Z,4.60
2022-08-09T12:21:48.532Z,4.50
2022-08-09T12:24:25.369Z,4.13
2022-08-09T12:29:09.975Z,5.05
2022-08-09T12:30:01.458Z,4.35
2022-08-09T12:32:44.251Z,4.75
2022-08-09T12:35:13.154Z,5.18
2022-08-09T12:37:51.831Z,4.88
2022-08-09T12:40:24.469Z,5.85
2022-08-09T12:45:34.706Z,5.10
2022-08-09T12:48:20.137Z,5.32
2022-08-09T12:50:58.124Z,5.30
2022-08-09T12:53:37.072Z,4.63
2022-08-09T12:56:39.916Z,4.95
2022-08-09T12:59:22.245Z,4.57
2022-08-09T13:02:09.381Z,4.20
2022-08-09T13:04:38.704Z,4.43
2022-08-09T13:07:16.652Z,4.82
2022-08-09T13:09:55.991Z,5.00
2022-08-09T13:12:29.311Z,4.57
2022-08-09T13:15:09.928Z,5.07
2022-08-09T13:18:02.435Z,5.05
2022-08-09T13:20:37.710Z,4.63
2022-08-09T13:24:17.125Z,5.18
2022-08-09T13:26:05.924Z,4.45
2022-08-09T13:28:39.538Z,5.30
2022-08-09T13:32:19.542Z,4.68
2022-08-09T13:33:58.976Z,4.67
2022-08-09T13:36:41.384Z,4.70
2022-08-09T13:41:46.857Z,4.75
2022-08-09T13:42:12.286Z,4.78
2022-08-09T13:44:42.204Z,4.63
2022-08-09T13:47:25.473Z,4.80
2022-08-09T13:50:01.742Z,4.68
2022-08-09T13:52:30.456Z,4.20
2022-08-09T13:55:00.935Z,5.32
2022-08-09T13:57:36.908Z,5.32
2022-08-09T14:00:12.157Z,6.18
2022-08-09T14:02:42.798Z,5.57
2022-08-09T14:05:58.778Z,5.78
2022-08-09T14:08:17.461Z,5.30
2022-08-09T14:10:50.298Z,5.80
2022-08-09T14:14:14.877Z,5.28
2022-08-09T14:16:15.285Z,5.32
2022-08-09T14:18:49.524Z,5.15
2022-08-09T14:21:23.423Z,4.55
2022-08-09T14:23:55.087Z,5.18
2022-08-09T14:26:31.926Z,4.80
2022-08-09T14:29:07.738Z,5.93
2022-08-09T14:31:53.865Z,5.18
2022-08-09T14:34:31.778Z,5.22
2022-08-09T14:37:08.016Z,4.72
2022-08-09T14:39:47.418Z,5.10
2022-08-09T14:42:31.647Z,4.47
2022-08-09T14:46:40.149Z,4.68
2022-08-09T14:47:58.087Z,4.30
2022-08-09T14:50:27.002Z,4.85
2022-08-09T14:52:54.059Z,4.15
2022-08-09T14:55:21.827Z,4.57
2022-08-09T14:57:49.427Z,4.28
2022-08-09T15:00:17.809Z,4.53
2022-08-09T15:02:47.760Z,4.40
2022-08-09T15:05:19.169Z,4.40
2022-08-09T15:07:54.562Z,5.32
2022-08-09T15:10:25.052Z,4.50
2022-08-09T15:12:53.606Z,4.45
2022-08-09T15:15:24.109Z,4.80
2022-08-09T15:17:53.207Z,4.47
2022-08-09T15:21:55.995Z,5.03
2022-08-09T15:24:02.513Z,5.68
2022-08-09T15:25:58.701Z,4.85
2022-08-09T15:28:27.716Z,4.55
2022-08-09T15:31:10.200Z,5.30
2022-08-09T15:34:17.311Z,4.60
2022-08-09T15:36:30.341Z,4.68
2022-08-09T15:39:00.198Z,6.03
2022-08-09T15:41:31.437Z,4.97
2022-08-09T15:44:02.737Z,5.70
2022-08-09T15:46:33.696Z,5.07
2022-08-09T15:49:21.340Z,5.50
2022-08-09T15:52:02.964Z,5.45
2022-08-09T15:54:46.273Z,4.45
2022-08-09T15:57:35.573Z,4.72
2022-08-09T16:00:24.286Z,5.20
2022-08-09T16:02:54.650Z,5.13
2022-08-09T16:05:24.085Z,4.50
2022-08-09T16:07:51.316Z,4.65
2022-08-09T16:10:56.077Z,5.00
2022-08-09T16:13:20.901Z,5.07
2022-08-09T16:16:11.973Z,5.28
2022-08-09T16:18:44.870Z,5.43
2022-08-09T16:21:17.293Z,7.63
2022-08-09T16:23:55.560Z,5.07
2022-08-09T16:26:34.593Z,5.38
2022-08-09T16:29:05.960Z,5.82
2022-08-09T16:32:18.083Z,5.30
2022-08-09T16:34:55.721Z,5.30
2022-08-09T16:37:53.027Z,5.15
2022-08-09T16:40:10.510Z,5.38
2022-08-09T16:42:37.932Z,5.47
2022-08-09T16:45:06.640Z,5.15
2022-08-09T16:48:49.600Z,6.55
2022-08-09T16:50:32.281Z,5.28
2022-08-09T16:53:02.055Z,5.75
2022-08-09T16:55:44.133Z,5.45
2022-08-09T16:58:17.339Z,6.07
2022-08-09T17:00:46.695Z,6.07
2022-08-09T17:03:21.747Z,5.75
2022-08-09T17:06:06.587Z,5.85
2022-08-09T17:08:56.767Z,4.80
2022-08-09T17:11:32.933Z,5.63
2022-08-09T17:14:25.624Z,5.18
2022-08-09T17:17:02.789Z,5.53
2022-08-09T17:20:11.108Z,5.53
2022-08-09T17:22:31.176Z,5.47
2022-08-09T17:25:03.741Z,5.68
2022-08-09T17:27:38.124Z,5.85
2022-08-09T17:30:13.033Z,5.35
2022-08-09T17:32:44.428Z,5.95
2022-08-09T17:35:14.566Z,5.03
2022-08-09T17:38:02.432Z,4.95
2022-08-09T17:40:30.415Z,5.72
2022-08-09T17:43:10.691Z,5.50
2022-08-09T17:46:03.738Z,5.40
2022-08-09T17:48:39.686Z,5.65
2022-08-09T17:51:19.647Z,5.35
2022-08-09T17:53:52.096Z,5.20
2022-08-09T17:56:27.080Z,5.20
2022-08-09T17:58:57.950Z,5.80
2022-08-09T18:01:25.150Z,5.85
2022-08-09T18:03:54.436Z,5.35
2022-08-09T18:06:31.286Z,6.72
2022-08-09T18:09:03.154Z,7.50
2022-08-09T18:11:47.013Z,5.40
2022-08-09T18:14:20.777Z,5.85
2022-08-09T18:16:49.185Z,6.50
2022-08-09T18:20:57.914Z,7.68
2022-08-09T18:22:06.035Z,7.22
2022-08-09T18:24:40.465Z,6.25
2022-08-09T18:27:09.929Z,6.03
2022-08-09T18:30:40.040Z,5.85
2022-08-09T18:32:29.270Z,6.40
2022-08-09T18:34:56.180Z,6.10
2022-08-09T18:37:47.869Z,6.63
2022-08-09T18:40:11.489Z,5.93
2022-08-09T18:42:39.485Z,6.50
2022-08-09T18:45:21.578Z,6.80
2022-08-09T18:47:58.590Z,6.20
2022-08-09T18:50:25.997Z,6.55
2022-08-09T18:53:01.059Z,10.13
2022-08-09T18:55:45.662Z,8.65
2022-08-09T18:58:22.081Z,6.60
2022-08-09T19:00:59.516Z,5.97
2022-08-09T19:03:28.698Z,7.00
2022-08-09T19:06:02.883Z,6.18
2022-08-09T19:08:30.663Z,6.30
2022-08-09T19:10:57.590Z,6.60
2022-08-09T19:13:46.802Z,7.53
2022-08-09T19:16:13.686Z,6.70
2022-08-09T19:18:48.291Z,6.65
2022-08-09T19:21:16.714Z,9.77
2022-08-09T19:24:37.397Z,7.47
2022-08-09T19:26:36.027Z,11.88
2022-08-09T19:29:09.768Z,15.45
2022-08-09T19:31:49.450Z,18.20
2022-08-09T19:34:22.768Z,8.10
2022-08-09T19:36:55.628Z,20.00
2022-08-09T19:39:43.109Z,8.25
2022-08-09T19:42:15.261Z,7.63
2022-08-09T19:44:49.359Z,9.07
2022-08-09T19:47:23.037Z,7.30
2022-08-09T19:50:09.611Z,7.50
2022-08-09T19:52:38.627Z,7.28
2022-08-09T19:55:30.785Z,7.00
2022-08-09T19:58:16.408Z,10.98
2022-08-09T20:00:45.848Z,7.53
2022-08-09T20:04:17.183Z,7.18
2022-08-09T20:06:03.208Z,12.10
2022-08-09T20:08:34.813Z,11.10
2022-08-09T20:11:04.411Z,11.35
2022-08-09T20:13:36.875Z,14.90
2022-08-09T20:16:33.207Z,20.75
2022-08-09T20:19:42.145Z,12.15
2022-08-09T20:21:56.125Z,9.88
2022-08-09T20:24:31.810Z,8.05
2022-08-09T20:27:02.646Z,8.05
2022-08-09T20:29:37.390Z,9.48
2022-08-09T20:32:28.840Z,6.60
2022-08-09T20:34:57.061Z,7.53
2022-08-09T20:37:24.447Z,10.13
2022-08-09T20:40:15.201Z,7.45
2022-08-09T20:42:38.573Z,8.02
2022-08-09T20:46:01.659Z,10.55
2022-08-09T20:47:54.945Z,7.55
2022-08-09T20:50:48.075Z,10.48
2022-08-09T20:53:35.305Z,12.95
2022-08-09T20:56:00.794Z,7.15
2022-08-09T20:58:32.729Z,8.85
2022-08-09T21:01:32.538Z,8.00
2022-08-09T21:04:08.205Z,9.23
2022-08-09T21:06:42.545Z,8.02
2022-08-09T21:09:11.822Z,7.47
2022-08-09T21:14:31.064Z,10.38
2022-08-09T21:16:59.510Z,8.05
2022-08-09T21:20:19.264Z,7.13
2022-08-09T21:22:35.997Z,8.45
2022-08-09T21:25:20.972Z,7.40
2022-08-09T21:28:01.254Z,7.40
2022-08-09T21:30:28.514Z,7.60
2022-08-09T21:32:57.163Z,9.00
2022-08-09T21:35:24.291Z,7.45
2022-08-09T21:37:59.708Z,7.10
2022-08-09T21:40:30.163Z,9.57
2022-08-09T21:43:01.416Z,7.80
2022-08-09T21:45:28.627Z,7.65
2022-08-09T21:47:58.300Z,7.32
2022-08-09T21:50:38.569Z,7.13
2022-08-09T21:53:24.026Z,8.00
2022-08-09T21:55:54.769Z,8.60
2022-08-09T21:58:21.723Z,6.60
2022-08-09T22:00:58.213Z,6.32
2022-08-09T22:03:26.101Z,6.70
2022-08-09T22:05:54.411Z,6.70
2022-08-09T22:08:24.583Z,6.60
2022-08-09T22:11:00.904Z,7.32
2022-08-09T22:13:43.448Z,6.57
2022-08-09T22:16:12.117Z,6.70
2022-08-09T22:18:53.543Z,7.45
2022-08-09T22:21:22.322Z,6.50
2022-08-09T22:24:01.131Z,6.28
2022-08-09T22:26:35.022Z,6.03
2022-08-09T22:29:10.029Z,6.60
2022-08-09T22:31:50.615Z,6.43
2022-08-09T22:34:25.697Z,6.32
2022-08-09T22:36:53.542Z,6.47
2022-08-09T22:39:58.499Z,7.10
2022-08-09T22:42:21.237Z,6.95
2022-08-09T22:48:10.230Z,6.70
2022-08-09T22:50:25.784Z,6.85
2022-08-09T22:52:54.822Z,6.85
2022-08-09T22:55:25.503Z,6.20
2022-08-09T22:58:00.879Z,7.28
2022-08-09T23:00:31.914Z,6.85
2022-08-09T23:02:58.874Z,6.70
2022-08-09T23:05:25.934Z,7.75
2022-08-09T23:08:29.286Z,6.53
2022-08-09T23:10:57.289Z,6.90
2022-08-09T23:13:24.437Z,7.00
2022-08-09T23:16:02.670Z,6.80
2022-08-09T23:18:31.147Z,5.97
2022-08-09T23:20:58.211Z,7.07
2022-08-09T23:23:25.258Z,7.20
2022-08-09T23:25:52.185Z,8.30
2022-08-09T23:28:19.205Z,10.23
2022-08-09T23:30:51.839Z,10.13
2022-08-09T23:33:20.463Z,12.50
2022-08-09T23:36:04.863Z,8.57
2022-08-09T23:38:35.115Z,10.60
2022-08-09T23:41:02.918Z,10.30
2022-08-09T23:43:29.856Z,8.68
2022-08-09T23:45:56.807Z,8.40
2022-08-09T23:48:23.704Z,9.32
2022-08-09T23:50:50.630Z,9.73
2022-08-09T23:53:17.622Z,9.50
2022-08-09T23:55:49.690Z,7.75
2022-08-09T23:58:26.090Z,7.40
